Time;durP1;ratioP1;P1;durP2;ratioP2;P2;SDS_P1;SDS_P2;PMS_P1;PMS_P2;Temp;Humidity;BMP_temperature;BMP_pressure;BME280_temperature;BME280_humidity;BME280_pressure;Samples;Min_cycle;Max_cycle;Signal;HPM_P1;HPM_P2
2022/03/16 00:02:07;;;;;;;19.17;15.50;;;;;;;;;;5105788;28;20016;-65
2022/03/16 00:04:32;;;;;;;21.08;15.18;;;;;;;;;;5092819;28;20447;-65
2022/03/16 00:06:57;;;;;;;17.95;15.02;;;;;;;;;;5108015;28;20031;-65
2022/03/16 00:09:22;;;;;;;18.58;14.50;;;;;;;;;;5110763;28;20027;-63
2022/03/16 00:11:47;;;;;;;18.45;14.50;;;;;;;;;;5108227;28;20157;-64
2022/03/16 00:14:13;;;;;;;19.95;15.75;;;;;;;;;;5110043;28;20019;-63
2022/03/16 00:16:38;;;;;;;19.67;14.52;;;;;;;;;;5112246;28;20024;-65
2022/03/16 00:19:03;;;;;;;20.63;15.75;;;;;;;;;;5108235;28;20032;-64
2022/03/16 00:21:28;;;;;;;19.58;14.95;;;;;;;;;;5100815;28;20012;-64
2022/03/16 00:23:54;;;;;;;21.38;15.38;;;;;;;;;;5106796;28;20031;-64
2022/03/16 00:26:19;;;;;;;18.58;14.57;;;;;;;;;;5103642;28;20020;-64
2022/03/16 00:28:44;;;;;;;20.33;14.98;;;;;;;;;;5110726;28;20047;-64
2022/03/16 00:31:09;;;;;;;20.70;14.85;;;;;;;;;;5097471;28;20074;-64
2022/03/16 00:33:35;;;;;;;17.85;14.88;;;;;;;;;;5097289;28;20027;-64
2022/03/16 00:36:00;;;;;;;19.30;15.35;;;;;;;;;;5102278;28;20089;-64
2022/03/16 00:38:25;;;;;;;20.65;15.82;;;;;;;;;;5112598;28;20081;-65
2022/03/16 00:40:50;;;;;;;19.98;15.20;;;;;;;;;;5110884;28;20035;-64
2022/03/16 00:43:15;;;;;;;20.48;15.68;;;;;;;;;;5102404;28;20115;-64
2022/03/16 00:45:40;;;;;;;21.63;15.73;;;;;;;;;;5098722;28;20031;-65
2022/03/16 00:48:06;;;;;;;19.88;15.40;;;;;;;;;;5098889;28;20063;-65
2022/03/16 00:50:32;;;;;;;23.73;16.23;;;;;;;;;;5109321;28;20027;-65
2022/03/16 00:52:57;;;;;;;22.75;16.08;;;;;;;;;;5109988;28;20251;-65
2022/03/16 00:55:22;;;;;;;25.10;17.00;;;;;;;;;;5107080;28;20486;-65
2022/03/16 00:57:47;;;;;;;21.70;16.15;;;;;;;;;;5111245;28;20051;-64
2022/03/16 01:00:13;;;;;;;20.05;15.48;;;;;;;;;;5106811;28;20032;-65
2022/03/16 01:02:38;;;;;;;25.35;17.15;;;;;;;;;;5101587;28;20027;-65
2022/03/16 01:05:04;;;;;;;22.90;17.63;;;;;;;;;;5105542;28;20015;-65
2022/03/16 01:07:29;;;;;;;20.13;15.88;;;;;;;;;;5103072;28;20016;-65
2022/03/16 01:09:54;;;;;;;24.63;18.20;;;;;;;;;;5115328;28;20022;-65
2022/03/16 01:12:20;;;;;;;23.70;16.95;;;;;;;;;;5106336;28;20024;-65
2022/03/16 01:14:45;;;;;;;26.02;18.50;;;;;;;;;;5114596;27;20030;-65
2022/03/16 01:17:11;;;;;;;27.40;18.33;;;;;;;;;;5113508;27;20407;-65
2022/03/16 01:19:36;;;;;;;27.05;18.65;;;;;;;;;;5110555;28;20035;-65
2022/03/16 01:22:02;;;;;;;22.83;18.48;;;;;;;;;;5095822;28;20073;-65
2022/03/16 01:24:27;;;;;;;25.70;19.02;;;;;;;;;;5100660;28;20055;-64
2022/03/16 01:26:52;;;;;;;27.17;19.30;;;;;;;;;;5102624;28;20526;-65
2022/03/16 01:29:18;;;;;;;28.40;18.80;;;;;;;;;;5096443;28;20050;-64
2022/03/16 01:31:43;;;;;;;25.38;18.80;;;;;;;;;;5109433;28;20061;-65
2022/03/16 01:34:08;;;;;;;25.40;19.05;;;;;;;;;;5097430;28;20039;-64
2022/03/16 01:36:33;;;;;;;24.65;19.05;;;;;;;;;;5101046;28;20035;-64
2022/03/16 01:38:58;;;;;;;24.27;19.23;;;;;;;;;;5103847;28;20024;-64
2022/03/16 01:41:24;;;;;;;24.73;17.67;;;;;;;;;;5114294;28;20026;-65
2022/03/16 01:43:53;;;;;;;23.48;17.95;;;;;;;;;;5113908;27;20484;-65
2022/03/16 01:46:20;;;;;;;24.30;17.98;;;;;;;;;;5103442;28;20180;-63
2022/03/16 01:48:45;;;;;;;30.73;21.27;;;;;;;;;;5121116;27;20031;-63
2022/03/16 01:51:10;;;;;;;23.83;18.20;;;;;;;;;;5129645;27;20024;-64
2022/03/16 01:53:35;;;;;;;24.88;18.55;;;;;;;;;;5099663;28;20467;-64
2022/03/16 01:56:01;;;;;;;25.77;18.17;;;;;;;;;;5106666;27;20036;-64
2022/03/16 01:58:27;;;;;;;25.85;18.45;;;;;;;;;;5105559;28;20054;-64
2022/03/16 02:00:52;;;;;;;26.05;18.70;;;;;;;;;;5118281;27;20035;-64
2022/03/16 02:03:17;;;;;;;26.35;17.83;;;;;;;;;;5113060;27;20020;-62
2022/03/16 02:05:43;;;;;;;23.48;17.60;;;;;;;;;;5110790;28;20500;-64
2022/03/16 02:08:10;;;;;;;23.52;18.38;;;;;;;;;;5105342;27;20024;-64
2022/03/16 02:10:36;;;;;;;23.80;17.67;;;;;;;;;;5110958;27;20464;-64
2022/03/16 02:13:02;;;;;;;24.35;17.67;;;;;;;;;;5107431;27;20080;-64
2022/03/16 02:15:27;;;;;;;22.65;17.38;;;;;;;;;;5108387;27;20411;-64
2022/03/16 02:17:55;;;;;;;23.63;16.40;;;;;;;;;;5107559;27;20084;-65
2022/03/16 02:20:20;;;;;;;25.13;17.67;;;;;;;;;;5106731;27;20026;-65
2022/03/16 02:22:51;;;;;;;25.83;18.05;;;;;;;;;;5109648;27;20036;-65
2022/03/16 02:25:16;;;;;;;25.00;17.55;;;;;;;;;;5104224;27;20023;-64
2022/03/16 02:27:42;;;;;;;25.88;17.40;;;;;;;;;;5106351;27;20077;-64
2022/03/16 02:30:08;;;;;;;21.52;16.63;;;;;;;;;;5108519;27;20459;-64
2022/03/16 02:32:33;;;;;;;27.25;19.02;;;;;;;;;;5109480;27;20131;-65
2022/03/16 02:34:58;;;;;;;26.50;18.80;;;;;;;;;;5109542;27;20424;-64
2022/03/16 02:37:23;;;;;;;26.20;18.30;;;;;;;;;;5109069;27;20040;-64
2022/03/16 02:39:49;;;;;;;25.30;18.85;;;;;;;;;;5114257;27;20098;-64
2022/03/16 02:42:14;;;;;;;28.08;18.95;;;;;;;;;;5108138;27;20047;-65
2022/03/16 02:44:39;;;;;;;24.33;17.35;;;;;;;;;;5106957;27;20122;-65
2022/03/16 02:47:04;;;;;;;25.85;18.40;;;;;;;;;;5106924;27;20039;-65
2022/03/16 02:49:31;;;;;;;25.98;17.85;;;;;;;;;;5109228;27;20028;-64
2022/03/16 02:51:57;;;;;;;24.75;17.40;;;;;;;;;;5105003;27;20030;-64
2022/03/16 02:54:22;;;;;;;24.58;17.65;;;;;;;;;;5104677;27;20016;-65
2022/03/16 02:56:47;;;;;;;25.15;18.23;;;;;;;;;;5103346;27;20576;-64
2022/03/16 02:59:13;;;;;;;28.55;18.63;;;;;;;;;;5109287;27;20115;-64
2022/03/16 03:01:38;;;;;;;24.23;18.25;;;;;;;;;;5105411;27;20118;-64
2022/03/16 03:04:03;;;;;;;29.42;19.60;;;;;;;;;;5108818;27;20381;-64
2022/03/16 03:06:30;;;;;;;25.52;20.20;;;;;;;;;;5111901;27;20024;-64
2022/03/16 03:08:55;;;;;;;30.60;19.10;;;;;;;;;;5108908;28;20015;-64
2022/03/16 03:11:20;;;;;;;25.00;18.33;;;;;;;;;;5105239;27;20114;-64
2022/03/16 03:13:46;;;;;;;27.52;18.75;;;;;;;;;;5108200;28;20020;-64
2022/03/16 03:16:11;;;;;;;27.35;19.25;;;;;;;;;;5110888;28;20236;-64
2022/03/16 03:18:37;;;;;;;24.63;19.67;;;;;;;;;;5094522;28;20023;-65
2022/03/16 03:21:04;;;;;;;27.35;18.80;;;;;;;;;;5110932;28;20038;-65
2022/03/16 03:23:29;;;;;;;28.15;18.30;;;;;;;;;;5104669;27;20480;-64
2022/03/16 03:25:54;;;;;;;31.75;21.02;;;;;;;;;;5103964;27;20023;-65
2022/03/16 03:28:19;;;;;;;26.92;19.30;;;;;;;;;;5111041;28;20423;-65
2022/03/16 03:30:44;;;;;;;27.20;19.30;;;;;;;;;;5096752;27;20082;-65
2022/03/16 03:33:10;;;;;;;29.00;20.35;;;;;;;;;;5104596;28;20390;-65
2022/03/16 03:35:35;;;;;;;31.25;20.17;;;;;;;;;;5098061;28;20016;-65
2022/03/16 03:38:00;;;;;;;32.10;21.98;;;;;;;;;;5107928;28;20016;-64
2022/03/16 03:40:25;;;;;;;30.30;19.98;;;;;;;;;;5105223;27;20126;-65
2022/03/16 03:42:51;;;;;;;29.02;19.52;;;;;;;;;;5112137;27;20024;-65
2022/03/16 03:45:16;;;;;;;32.42;21.50;;;;;;;;;;5104941;27;20092;-65
2022/03/16 03:47:42;;;;;;;33.70;21.83;;;;;;;;;;5085472;28;20484;-64
2022/03/16 03:50:07;;;;;;;31.15;21.95;;;;;;;;;;5107174;27;20095;-65
2022/03/16 03:52:32;;;;;;;30.55;20.17;;;;;;;;;;5112273;27;20052;-65
2022/03/16 03:54:57;;;;;;;30.00;21.40;;;;;;;;;;5099676;28;20016;-64
2022/03/16 03:57:22;;;;;;;29.60;20.52;;;;;;;;;;5104743;28;20067;-65
2022/03/16 03:59:48;;;;;;;28.70;20.10;;;;;;;;;;5098101;28;20047;-64
2022/03/16 04:02:14;;;;;;;31.60;21.65;;;;;;;;;;5106654;28;20384;-65
2022/03/16 04:04:39;;;;;;;34.63;22.73;;;;;;;;;;5099614;28;20020;-64
2022/03/16 04:07:04;;;;;;;31.17;20.63;;;;;;;;;;5107995;28;20026;-64
2022/03/16 04:09:30;;;;;;;31.60;20.15;;;;;;;;;;5106769;28;20353;-64
2022/03/16 04:11:55;;;;;;;33.53;22.55;;;;;;;;;;5108137;28;20107;-65
2022/03/16 04:14:20;;;;;;;35.47;23.42;;;;;;;;;;5109367;28;20165;-64
2022/03/16 04:16:45;;;;;;;34.65;22.77;;;;;;;;;;5106526;28;20156;-65
2022/03/16 04:19:10;;;;;;;35.42;22.58;;;;;;;;;;5106296;28;20028;-65
2022/03/16 04:21:36;;;;;;;37.13;22.88;;;;;;;;;;5106710;28;20055;-65
2022/03/16 04:24:02;;;;;;;38.45;23.88;;;;;;;;;;5106358;28;20040;-64
2022/03/16 04:26:27;;;;;;;36.85;23.25;;;;;;;;;;5100235;28;20031;-64
2022/03/16 04:28:52;;;;;;;34.15;22.98;;;;;;;;;;5107987;28;20111;-65
2022/03/16 04:31:17;;;;;;;35.15;23.60;;;;;;;;;;5109432;28;20034;-63
2022/03/16 04:33:42;;;;;;;35.53;22.25;;;;;;;;;;5108533;28;20036;-65
2022/03/16 04:36:08;;;;;;;33.92;23.20;;;;;;;;;;5102647;28;20506;-64
2022/03/16 04:38:33;;;;;;;36.05;23.10;;;;;;;;;;5109636;28;21409;-64
2022/03/16 04:41:02;;;;;;;39.08;24.27;;;;;;;;;;5102286;28;20468;-63
2022/03/16 04:43:27;;;;;;;35.45;23.38;;;;;;;;;;5103102;28;20097;-63
2022/03/16 04:45:52;;;;;;;35.00;24.48;;;;;;;;;;5102677;28;20028;-64
2022/03/16 04:48:17;;;;;;;41.42;24.92;;;;;;;;;;5105339;27;20031;-63
2022/03/16 04:50:43;;;;;;;37.25;24.33;;;;;;;;;;5105104;28;20077;-63
2022/03/16 04:53:08;;;;;;;38.92;25.25;;;;;;;;;;5104347;27;20043;-63
2022/03/16 04:55:36;;;;;;;40.17;24.50;;;;;;;;;;5107876;28;20031;-63
2022/03/16 04:58:01;;;;;;;40.95;24.17;;;;;;;;;;5107283;27;20028;-63
2022/03/16 05:00:26;;;;;;;36.47;24.23;;;;;;;;;;5102453;28;20468;-65
2022/03/16 05:02:52;;;;;;;33.25;23.02;;;;;;;;;;5108126;28;20110;-65
2022/03/16 05:05:17;;;;;;;35.17;23.60;;;;;;;;;;5094271;28;20032;-63
2022/03/16 05:07:42;;;;;;;39.95;23.95;;;;;;;;;;5097973;28;20051;-63
2022/03/16 05:10:09;;;;;;;37.20;23.83;;;;;;;;;;5108363;28;20054;-63
2022/03/16 05:12:37;;;;;;;34.15;23.83;;;;;;;;;;5104067;28;20023;-64
2022/03/16 05:15:04;;;;;;;38.35;25.70;;;;;;;;;;5111039;27;20043;-64
2022/03/16 05:17:29;;;;;;;40.75;25.23;;;;;;;;;;5093855;28;20032;-64
2022/03/16 05:19:54;;;;;;;39.97;25.85;;;;;;;;;;5106619;27;20483;-64
2022/03/16 05:22:19;;;;;;;39.30;24.52;;;;;;;;;;5114078;27;20067;-63
2022/03/16 05:24:45;;;;;;;43.20;26.20;;;;;;;;;;5098855;28;20046;-63
2022/03/16 05:27:10;;;;;;;36.45;25.02;;;;;;;;;;5105284;28;20034;-64
2022/03/16 05:29:36;;;;;;;39.17;25.10;;;;;;;;;;5105199;27;20051;-64
2022/03/16 05:32:01;;;;;;;36.80;23.92;;;;;;;;;;5109863;27;20055;-64
2022/03/16 05:34:27;;;;;;;36.75;25.52;;;;;;;;;;5110307;27;20448;-64
2022/03/16 05:36:52;;;;;;;42.22;25.45;;;;;;;;;;5109918;27;20456;-64
2022/03/16 05:39:17;;;;;;;44.15;26.75;;;;;;;;;;5100669;28;20119;-65
2022/03/16 05:41:42;;;;;;;35.03;23.42;;;;;;;;;;5112123;28;20392;-64
2022/03/16 05:44:09;;;;;;;39.33;24.83;;;;;;;;;;5114243;28;20028;-64
2022/03/16 05:46:34;;;;;;;36.78;24.92;;;;;;;;;;5107620;27;20067;-65
2022/03/16 05:49:00;;;;;;;42.17;26.80;;;;;;;;;;5111201;28;20534;-65
2022/03/16 05:51:25;;;;;;;43.53;27.60;;;;;;;;;;5105559;28;20020;-65
2022/03/16 05:53:50;;;;;;;37.28;25.55;;;;;;;;;;5113850;28;20390;-64
2022/03/16 05:56:15;;;;;;;43.70;25.90;;;;;;;;;;5108992;28;20051;-64
2022/03/16 05:58:40;;;;;;;44.28;27.38;;;;;;;;;;5112769;28;20027;-65
2022/03/16 06:01:06;;;;;;;41.42;27.15;;;;;;;;;;5111242;28;20039;-66
2022/03/16 06:03:31;;;;;;;42.42;26.23;;;;;;;;;;5112210;28;20119;-64
2022/03/16 06:05:56;;;;;;;41.70;27.65;;;;;;;;;;5114281;28;20084;-64
2022/03/16 06:08:21;;;;;;;42.75;28.23;;;;;;;;;;5113417;28;20088;-65
2022/03/16 06:10:46;;;;;;;39.58;26.38;;;;;;;;;;5101689;28;20036;-65
2022/03/16 06:13:12;;;;;;;37.45;26.10;;;;;;;;;;5098163;28;20513;-65
2022/03/16 06:15:41;;;;;;;43.47;26.65;;;;;;;;;;5094355;28;20032;-66
2022/03/16 06:18:06;;;;;;;41.25;26.70;;;;;;;;;;5093473;28;20019;-66
2022/03/16 06:20:33;;;;;;;41.25;26.15;;;;;;;;;;5095843;28;20027;-65
2022/03/16 06:22:58;;;;;;;38.47;25.83;;;;;;;;;;5095428;28;20051;-66
2022/03/16 06:25:27;;;;;;;40.88;25.88;;;;;;;;;;5099683;28;20470;-65
2022/03/16 06:27:52;;;;;;;46.53;28.95;;;;;;;;;;5112400;28;20023;-64
2022/03/16 06:30:18;;;;;;;38.47;26.00;;;;;;;;;;5107478;28;20016;-65
2022/03/16 06:32:43;;;;;;;42.67;26.05;;;;;;;;;;5105503;28;20031;-64
2022/03/16 06:35:09;;;;;;;39.80;25.75;;;;;;;;;;5109372;27;20028;-65
2022/03/16 06:37:34;;;;;;;43.05;27.65;;;;;;;;;;5112514;28;20548;-65
2022/03/16 06:39:59;;;;;;;38.35;27.30;;;;;;;;;;5098629;28;20052;-65
2022/03/16 06:42:24;;;;;;;42.78;27.75;;;;;;;;;;5093009;28;20384;-65
2022/03/16 06:44:50;;;;;;;42.60;26.42;;;;;;;;;;5094385;28;20027;-65
2022/03/16 06:47:15;;;;;;;42.90;28.52;;;;;;;;;;5092774;28;20027;-65
2022/03/16 06:49:40;;;;;;;37.60;25.83;;;;;;;;;;5106981;28;20072;-64
2022/03/16 06:52:06;;;;;;;40.08;27.73;;;;;;;;;;5109984;28;20031;-65
2022/03/16 06:54:31;;;;;;;43.33;27.17;;;;;;;;;;5093816;28;20043;-65
2022/03/16 06:56:56;;;;;;;40.58;26.70;;;;;;;;;;5110883;28;20404;-66
2022/03/16 06:59:21;;;;;;;39.80;27.02;;;;;;;;;;5105026;28;20040;-65
2022/03/16 07:01:47;;;;;;;37.08;24.77;;;;;;;;;;5113315;28;20107;-64
2022/03/16 07:04:12;;;;;;;43.35;27.40;;;;;;;;;;5097683;28;20031;-64
2022/03/16 07:06:37;;;;;;;42.20;27.15;;;;;;;;;;5094288;28;20044;-65
2022/03/16 07:09:02;;;;;;;43.70;26.98;;;;;;;;;;5094460;28;20020;-64
2022/03/16 07:11:28;;;;;;;44.05;27.85;;;;;;;;;;5103243;28;20464;-65
2022/03/16 07:16:37;;;;;;;46.15;28.08;;;;;;;;;;5093116;28;20166;-67
2022/03/16 07:19:02;;;;;;;41.05;26.35;;;;;;;;;;5090481;28;20476;-65
2022/03/16 07:21:27;;;;;;;38.45;26.40;;;;;;;;;;5094591;28;20028;-64
2022/03/16 07:23:52;;;;;;;36.17;25.30;;;;;;;;;;5093420;28;20088;-65
2022/03/16 07:26:17;;;;;;;34.88;23.58;;;;;;;;;;5107214;28;20032;-64
2022/03/16 07:28:43;;;;;;;34.13;22.83;;;;;;;;;;5111670;28;20031;-65
2022/03/16 07:31:08;;;;;;;34.83;23.98;;;;;;;;;;5099532;28;20030;-65
2022/03/16 07:33:34;;;;;;;38.13;25.05;;;;;;;;;;5104631;28;20027;-65
2022/03/16 07:35:59;;;;;;;36.70;24.85;;;;;;;;;;5107924;28;20027;-65
2022/03/16 07:38:25;;;;;;;34.53;23.30;;;;;;;;;;5109767;28;20030;-65
2022/03/16 07:40:50;;;;;;;37.33;24.15;;;;;;;;;;5112562;28;20077;-65
2022/03/16 07:43:15;;;;;;;38.25;24.02;;;;;;;;;;5111995;28;20023;-65
2022/03/16 07:45:40;;;;;;;45.83;28.05;;;;;;;;;;5101641;28;20032;-64
2022/03/16 07:48:05;;;;;;;41.70;26.50;;;;;;;;;;5105575;28;20047;-64
2022/03/16 07:50:31;;;;;;;33.65;23.50;;;;;;;;;;5105338;28;20027;-64
2022/03/16 07:52:56;;;;;;;34.53;25.23;;;;;;;;;;5112503;28;20678;-66
2022/03/16 07:55:21;;;;;;;38.67;26.73;;;;;;;;;;5105098;28;20089;-64
2022/03/16 07:57:47;;;;;;;39.05;26.33;;;;;;;;;;5102011;28;20058;-64
2022/03/16 08:00:12;;;;;;;38.83;26.50;;;;;;;;;;5105194;28;20050;-65
2022/03/16 08:02:38;;;;;;;35.97;25.02;;;;;;;;;;5110769;28;20055;-65
2022/03/16 08:05:05;;;;;;;33.42;23.83;;;;;;;;;;5105363;28;20038;-65
2022/03/16 08:07:30;;;;;;;34.45;24.63;;;;;;;;;;5111165;28;20035;-65
2022/03/16 08:09:58;;;;;;;30.05;21.55;;;;;;;;;;5096580;28;20422;-65
2022/03/16 08:12:24;;;;;;;32.38;22.00;;;;;;;;;;5111676;28;20089;-65
2022/03/16 08:14:50;;;;;;;25.40;20.25;;;;;;;;;;5112334;28;20479;-65
2022/03/16 08:17:15;;;;;;;30.10;20.92;;;;;;;;;;5112439;28;20552;-65
2022/03/16 08:19:40;;;;;;;29.05;20.73;;;;;;;;;;5098543;28;20020;-64
2022/03/16 08:22:06;;;;;;;28.92;20.02;;;;;;;;;;5112097;28;20501;-65
2022/03/16 08:24:31;;;;;;;26.05;19.92;;;;;;;;;;5106570;28;20071;-64
2022/03/16 08:26:56;;;;;;;23.42;18.83;;;;;;;;;;5105989;28;20289;-64
2022/03/16 08:29:21;;;;;;;28.05;19.42;;;;;;;;;;5096123;28;20028;-64
2022/03/16 08:31:47;;;;;;;24.42;19.67;;;;;;;;;;5108951;28;20106;-65
2022/03/16 08:34:12;;;;;;;25.75;20.48;;;;;;;;;;5113263;28;20026;-65
2022/03/16 08:36:39;;;;;;;27.35;21.58;;;;;;;;;;5095464;28;20115;-64
2022/03/16 08:39:04;;;;;;;22.77;18.38;;;;;;;;;;5107304;28;20024;-65
2022/03/16 08:41:32;;;;;;;23.60;18.23;;;;;;;;;;5103069;28;20498;-64
2022/03/16 08:43:57;;;;;;;25.63;19.00;;;;;;;;;;5097926;28;20028;-63
2022/03/16 08:46:23;;;;;;;23.30;18.38;;;;;;;;;;5115651;28;20027;-64
2022/03/16 08:48:48;;;;;;;21.15;17.85;;;;;;;;;;5113003;28;20027;-63
2022/03/16 08:51:13;;;;;;;24.30;18.80;;;;;;;;;;5106177;28;20032;-65
2022/03/16 08:53:39;;;;;;;24.63;18.65;;;;;;;;;;5114402;28;20027;-65
2022/03/16 08:56:04;;;;;;;26.77;19.27;;;;;;;;;;5109013;28;20040;-65
2022/03/16 08:58:29;;;;;;;24.33;18.73;;;;;;;;;;5113049;28;20077;-65
2022/03/16 09:00:54;;;;;;;23.40;18.30;;;;;;;;;;5106570;28;20019;-65
2022/03/16 09:03:20;;;;;;;24.63;19.40;;;;;;;;;;5106816;28;20535;-65
2022/03/16 09:05:45;;;;;;;25.73;19.13;;;;;;;;;;5102913;28;20019;-65
2022/03/16 09:08:10;;;;;;;24.70;18.58;;;;;;;;;;5105550;28;20024;-65
2022/03/16 09:10:35;;;;;;;24.30;18.88;;;;;;;;;;5110621;28;20024;-65
2022/03/16 09:13:01;;;;;;;29.65;20.20;;;;;;;;;;5102145;28;20016;-65
2022/03/16 09:15:26;;;;;;;25.30;19.50;;;;;;;;;;5097788;28;20016;-65
2022/03/16 09:17:52;;;;;;;24.73;19.27;;;;;;;;;;5094971;28;20020;-65
2022/03/16 09:20:17;;;;;;;25.05;20.15;;;;;;;;;;5099030;28;20031;-64
2022/03/16 09:22:43;;;;;;;26.75;18.63;;;;;;;;;;5104228;28;20024;-65
2022/03/16 09:25:08;;;;;;;23.05;18.45;;;;;;;;;;5097874;28;20038;-64
2022/03/16 09:27:35;;;;;;;23.60;19.10;;;;;;;;;;5102530;28;20036;-65
2022/03/16 09:30:01;;;;;;;22.20;17.95;;;;;;;;;;5103196;28;20137;-65
2022/03/16 09:32:27;;;;;;;21.45;18.05;;;;;;;;;;5104669;28;20468;-65
2022/03/16 09:34:52;;;;;;;25.77;18.48;;;;;;;;;;5103290;28;20036;-64
2022/03/16 09:37:18;;;;;;;22.70;17.73;;;;;;;;;;5099310;28;20026;-64
2022/03/16 09:39:44;;;;;;;19.83;15.77;;;;;;;;;;5111173;28;20039;-65
2022/03/16 09:42:10;;;;;;;19.17;14.95;;;;;;;;;;5112926;28;20401;-65
2022/03/16 09:44:36;;;;;;;20.27;15.70;;;;;;;;;;5104466;28;20035;-65
2022/03/16 09:47:02;;;;;;;19.52;15.10;;;;;;;;;;5112520;28;20107;-65
2022/03/16 09:49:27;;;;;;;19.98;14.85;;;;;;;;;;5107144;28;20450;-64
2022/03/16 09:51:53;;;;;;;19.15;14.88;;;;;;;;;;5114583;28;20028;-65
2022/03/16 09:54:19;;;;;;;17.75;15.23;;;;;;;;;;5109903;28;20432;-65
2022/03/16 09:56:44;;;;;;;17.20;13.65;;;;;;;;;;5108408;28;20117;-64
2022/03/16 09:59:10;;;;;;;18.13;13.75;;;;;;;;;;5109575;28;20114;-64
2022/03/16 10:01:35;;;;;;;18.13;13.60;;;;;;;;;;5102826;28;20080;-66
2022/03/16 10:04:05;;;;;;;17.73;13.60;;;;;;;;;;5107579;28;20024;-65
2022/03/16 10:06:31;;;;;;;17.10;14.18;;;;;;;;;;5105133;28;20028;-65
2022/03/16 10:14:24;;;;;;;15.63;12.05;;;;;;;;;;5110254;28;20122;-65
2022/03/16 10:19:49;;;;;;;13.73;11.07;;;;;;;;;;5111734;28;20044;-64
2022/03/16 10:22:41;;;;;;;12.57;10.57;;;;;;;;;;5114171;28;20386;-65
2022/03/16 10:25:07;;;;;;;15.68;11.40;;;;;;;;;;5096534;28;20059;-65
2022/03/16 10:27:38;;;;;;;15.68;11.63;;;;;;;;;;5110026;28;20031;-65
2022/03/16 10:30:05;;;;;;;13.68;10.55;;;;;;;;;;5109612;28;20024;-65
2022/03/16 10:32:31;;;;;;;11.60;10.38;;;;;;;;;;5112715;28;20476;-65
2022/03/16 10:34:57;;;;;;;12.15;9.98;;;;;;;;;;5106865;28;20030;-66
2022/03/16 10:37:23;;;;;;;11.13;9.55;;;;;;;;;;5109934;28;20111;-64
2022/03/16 10:39:50;;;;;;;13.50;10.80;;;;;;;;;;5094640;28;20032;-65
2022/03/16 10:47:58;;;;;;;10.27;9.05;;;;;;;;;;5028944;28;20119;-65
2022/03/16 10:50:23;;;;;;;11.27;9.20;;;;;;;;;;5030112;28;20029;-65
2022/03/16 10:52:50;;;;;;;11.82;8.75;;;;;;;;;;5027791;28;20578;-65
2022/03/16 10:55:15;;;;;;;11.25;8.93;;;;;;;;;;5026750;28;20075;-65
2022/03/16 10:57:42;;;;;;;9.57;8.52;;;;;;;;;;5030331;28;20465;-66
2022/03/16 11:00:08;;;;;;;9.50;7.25;;;;;;;;;;5024320;28;20037;-66
2022/03/16 11:02:34;;;;;;;10.32;7.50;;;;;;;;;;5018708;28;20403;-67
2022/03/16 11:05:00;;;;;;;11.43;7.97;;;;;;;;;;5027942;28;20029;-66
2022/03/16 11:07:25;;;;;;;9.25;7.97;;;;;;;;;;5027845;28;20095;-66
2022/03/16 11:09:51;;;;;;;8.48;7.68;;;;;;;;;;5011534;28;20041;-65
2022/03/16 11:15:05;;;;;;;7.38;6.68;;;;;;;;;;5011484;28;20041;-66
2022/03/16 11:17:31;;;;;;;7.93;7.13;;;;;;;;;;5010486;28;20022;-66
2022/03/16 11:19:56;;;;;;;6.97;6.28;;;;;;;;;;5009897;28;20080;-66
2022/03/16 11:22:24;;;;;;;6.97;6.38;;;;;;;;;;5064058;28;20024;-66
2022/03/16 11:25:16;;;;;;;6.45;5.75;;;;;;;;;;5098117;28;20031;-66
2022/03/16 11:27:52;;;;;;;6.40;5.80;;;;;;;;;;5108993;28;20047;-66
2022/03/16 11:30:25;;;;;;;6.72;5.50;;;;;;;;;;5107512;28;20092;-66
2022/03/16 11:32:56;;;;;;;5.65;4.50;;;;;;;;;;5100168;28;20026;-63
2022/03/16 11:35:21;;;;;;;4.78;3.53;;;;;;;;;;5111863;28;20499;-64
2022/03/16 11:37:50;;;;;;;4.18;3.53;;;;;;;;;;5105611;28;20036;-66
2022/03/16 11:40:22;;;;;;;5.53;4.95;;;;;;;;;;5102198;28;20034;-66
2022/03/16 11:43:08;;;;;;;5.43;4.90;;;;;;;;;;5105166;28;20016;-66
2022/03/16 11:45:40;;;;;;;4.78;4.28;;;;;;;;;;5112619;28;20028;-66
2022/03/16 11:48:24;;;;;;;5.10;4.53;;;;;;;;;;5096987;28;20016;-65
2022/03/16 11:51:08;;;;;;;4.53;4.13;;;;;;;;;;5091456;28;20008;-65
2022/03/16 11:53:50;;;;;;;5.43;4.32;;;;;;;;;;5102632;28;20024;-65
2022/03/16 11:56:20;;;;;;;5.65;4.68;;;;;;;;;;5108433;28;20126;-65
2022/03/16 11:58:47;;;;;;;4.22;3.63;;;;;;;;;;5098678;28;20065;-67
2022/03/16 12:01:28;;;;;;;5.53;4.30;;;;;;;;;;5112819;28;20041;-67
2022/03/16 12:03:58;;;;;;;6.43;4.15;;;;;;;;;;5101522;28;20074;-67
2022/03/16 12:06:30;;;;;;;5.55;4.38;;;;;;;;;;5105100;28;20031;-68
2022/03/16 12:09:02;;;;;;;5.63;4.28;;;;;;;;;;5099451;28;20027;-67
2022/03/16 12:14:32;;;;;;;4.80;4.35;;;;;;;;;;5106159;28;20023;-67
2022/03/16 12:17:13;;;;;;;6.22;4.63;;;;;;;;;;5112262;28;20068;-65
2022/03/16 12:19:39;;;;;;;4.30;3.90;;;;;;;;;;5099773;28;20024;-64
2022/03/16 12:22:07;;;;;;;6.05;5.28;;;;;;;;;;5105053;28;20032;-66
2022/03/16 12:30:01;;;;;;;5.20;4.80;;;;;;;;;;5109569;28;20057;-65
2022/03/16 12:32:27;;;;;;;5.80;4.50;;;;;;;;;;5101861;28;20048;-64
2022/03/16 12:34:54;;;;;;;5.00;4.60;;;;;;;;;;5102963;28;20118;-66
2022/03/16 12:37:22;;;;;;;4.93;4.35;;;;;;;;;;5101929;28;20016;-66
2022/03/16 12:39:48;;;;;;;5.25;4.40;;;;;;;;;;5103027;28;20027;-65
2022/03/16 12:42:31;;;;;;;4.85;4.45;;;;;;;;;;5099896;28;20392;-66
2022/03/16 12:45:03;;;;;;;4.47;4.15;;;;;;;;;;5099885;28;20038;-67
2022/03/16 12:47:34;;;;;;;6.07;4.75;;;;;;;;;;5103882;28;20029;-67
2022/03/16 12:50:01;;;;;;;4.88;4.47;;;;;;;;;;5100622;28;20028;-65
2022/03/16 12:52:26;;;;;;;4.70;4.30;;;;;;;;;;5102612;28;20051;-65
2022/03/16 12:54:54;;;;;;;5.00;4.60;;;;;;;;;;5100984;28;20112;-67
2022/03/16 12:57:19;;;;;;;4.65;4.25;;;;;;;;;;5106999;28;20044;-65
2022/03/16 12:59:52;;;;;;;4.53;4.13;;;;;;;;;;5102314;28;20016;-66
2022/03/16 13:02:22;;;;;;;6.13;4.40;;;;;;;;;;5112202;28;20030;-65
2022/03/16 13:04:51;;;;;;;4.38;4.00;;;;;;;;;;5103904;28;20417;-66
2022/03/16 13:07:18;;;;;;;4.82;4.32;;;;;;;;;;5113829;28;20023;-66
2022/03/16 13:09:43;;;;;;;5.82;5.32;;;;;;;;;;5109942;28;20089;-67
2022/03/16 13:12:09;;;;;;;6.03;5.45;;;;;;;;;;5109763;28;20469;-65
2022/03/16 13:14:36;;;;;;;5.35;5.00;;;;;;;;;;5096092;27;20049;-65
2022/03/16 13:17:04;;;;;;;5.22;4.90;;;;;;;;;;5106651;28;20033;-65
2022/03/16 13:19:33;;;;;;;5.75;5.35;;;;;;;;;;5106972;28;20024;-66
2022/03/16 13:22:02;;;;;;;5.30;4.80;;;;;;;;;;5115582;28;20031;-66
2022/03/16 13:24:38;;;;;;;5.03;4.60;;;;;;;;;;5109941;28;20601;-64
2022/03/16 13:27:05;;;;;;;5.15;4.68;;;;;;;;;;5106513;28;20399;-65
2022/03/16 13:29:32;;;;;;;5.20;4.90;;;;;;;;;;5110150;28;20059;-64
2022/03/16 13:31:59;;;;;;;4.82;4.43;;;;;;;;;;5106422;28;20094;-65
2022/03/16 13:34:26;;;;;;;5.00;4.60;;;;;;;;;;5104975;28;20495;-64
2022/03/16 13:36:51;;;;;;;5.60;5.20;;;;;;;;;;5102161;28;20032;-64
2022/03/16 13:39:18;;;;;;;5.38;5.03;;;;;;;;;;5113812;28;20536;-66
2022/03/16 13:42:12;;;;;;;5.50;5.10;;;;;;;;;;5102293;28;20031;-65
2022/03/16 13:44:44;;;;;;;6.95;6.45;;;;;;;;;;5094120;28;20084;-65
2022/03/16 13:47:12;;;;;;;6.20;5.70;;;;;;;;;;5101490;28;20027;-65
2022/03/16 13:49:37;;;;;;;5.88;5.43;;;;;;;;;;5099682;28;20026;-65
2022/03/16 13:52:07;;;;;;;6.47;5.95;;;;;;;;;;5105010;28;20099;-64
2022/03/16 13:54:33;;;;;;;6.60;6.00;;;;;;;;;;5099718;28;20471;-65
2022/03/16 13:57:05;;;;;;;6.30;5.80;;;;;;;;;;5111597;28;20039;-66
2022/03/16 13:59:31;;;;;;;6.13;5.68;;;;;;;;;;5112510;28;20024;-64
2022/03/16 14:02:07;;;;;;;7.03;6.43;;;;;;;;;;5106938;28;20388;-65
2022/03/16 14:04:36;;;;;;;7.80;7.20;;;;;;;;;;5110378;28;20015;-64
2022/03/16 14:07:15;;;;;;;7.53;6.78;;;;;;;;;;5112887;28;20096;-65
2022/03/16 14:09:42;;;;;;;7.43;6.72;;;;;;;;;;5114067;28;20019;-64
2022/03/16 14:12:10;;;;;;;7.50;6.80;;;;;;;;;;5113033;28;20019;-64
2022/03/16 14:14:35;;;;;;;6.75;6.18;;;;;;;;;;5112918;28;20039;-65
2022/03/16 14:17:02;;;;;;;7.07;6.40;;;;;;;;;;5110935;28;20073;-64
2022/03/16 14:19:30;;;;;;;6.93;6.32;;;;;;;;;;5113244;27;20311;-65
2022/03/16 14:21:57;;;;;;;7.20;6.60;;;;;;;;;;5114124;27;20019;-65
2022/03/16 14:24:24;;;;;;;8.25;7.65;;;;;;;;;;5109846;28;20043;-64
2022/03/16 14:26:49;;;;;;;8.90;8.20;;;;;;;;;;5107149;28;20034;-65
2022/03/16 14:29:15;;;;;;;9.57;8.73;;;;;;;;;;5093047;28;20027;-66
2022/03/16 14:31:41;;;;;;;8.40;7.70;;;;;;;;;;5110809;28;20035;-64
2022/03/16 14:34:07;;;;;;;8.38;7.57;;;;;;;;;;5103370;28;20280;-65
2022/03/16 14:36:33;;;;;;;8.73;8.00;;;;;;;;;;5110018;28;20026;-65
2022/03/16 14:38:58;;;;;;;7.43;6.70;;;;;;;;;;5110376;28;20103;-66
2022/03/16 14:41:23;;;;;;;8.23;7.53;;;;;;;;;;5106296;27;20098;-64
2022/03/16 14:43:48;;;;;;;8.70;7.90;;;;;;;;;;5102685;28;20111;-65
2022/03/16 14:46:14;;;;;;;8.20;7.40;;;;;;;;;;5102790;28;20032;-65
2022/03/16 14:48:39;;;;;;;7.93;7.20;;;;;;;;;;5107002;28;20020;-66